Lubbock Preston Smith International Airport
KLBB : now visible

Airfield :











YOU CAN JOIN US ON...

 
LOGIN :

Register | Disclaimer

   EN    FR    IT 

 









Legend :    VFR   Marginal VFR   IFR   Intensive IFR   Very Intensive IFR
Visi :
Ceiling :
>= 8 km
>= 3000ft
5 to 8 km
1000 to 3000 ft
1500m to 5 km
500 to 1000 ft
800 to 1500m
200 to 500 ft
< 800m
< 200 ft
Symbols :   Thunderstorms  Fog  Heavy snow  Heavy precipitations  Wind > 20 kt






- Airport Elevation : 3282 ft
- IATA code : LBB


KLBB - Lubbock Preston Smith International

CURRENT METAR :
  • 151453Z 28006KT 10SM FEW150 06/01 A2975 RMK AO2 SLP066 T00560011 53019 $

EXPIRED METARs :
  • 151353Z 28006KT 10SM FEW150 02/M01 A2973 RMK AO2 SLP058 T00221011 $
  • 151253Z 26005KT 10SM CLR 03/M01 A2971 RMK AO2 SLP047 T00281011 $

TAF KLBB
Valid from the 15 at 12:00 until the 16 at 12:00 UTC


151127Z 1512/1612 27011KT P6SM FEW150
FM152200 06011KT P6SM SCT150



MET'MAP, your aeronautical weather chart ! - Copyright ORBIFLY December 2007 - Disclaimer

ORBIFLY MET'MAP TEAM :

Programming & Development : Alexandra Zaïnal
Concept & original design : Baudouin d'Aumeries
Assistance for programming : Marc-Olivier Méhu
Technical & hardware support : Manuel Goepfert

Contact : metmap@orbifly.com




SOURCES & CREDITS :

   NOAA       Earth
Advisory